Aérodrome :
LOGIN :

S'inscrire | Disclaimer

   EN    FR    IT 

 










Légende :    VFR   VFR Marginal   IFR   IFR Intensif   IFR Très Intensif
Visi : 
Plafond : 
>= 8 km
>= 3000ft
5 à 8 km
1000 à 3000 ft
1500m à 5 km
500 à 1000 ft
800 à 1500m
200 à 500 ft
< 800m
< 200 ft
Symboles :   Orages  Brouillard  Fortes neiges  Fortes précipitations  Vent > 20 kt
SIGMETs :   Divers  Orages  Givrage  Turbulence  Onde Orograph.  Cendres Volcan.






- Altitude de l'aérodrome : 144 ft
- Code IATA : PGF


LFMP - Perpignan

DERNIER METAR :
  • 141700Z AUTO 20005KT 160V260 CAVOK 29/17 Q1013 TEMPO VRB15G25KT BKN040TCU

METARs EXPIRÉS :
  • 141630Z AUTO 19004KT 160V240 CAVOK 29/18 Q1013 TEMPO VRB15G25KT BKN040TCU
  • 141600Z AUTO 20005KT CAVOK 27/17 Q1013 TEMPO VRB15G25KT BKN040TCU
  • 141530Z AUTO 20003KT 160V220 CAVOK 27/17 Q1013 TEMPO VRB15G25KT BKN040TCU
  • 141500Z AUTO 17008KT CAVOK 27/16 Q1014 TEMPO VRB15G25KT BKN040TCU
  • 141430Z AUTO 16008KT 110V180 9999 ///CB 27/15 Q1014 TEMPO VRB15G25KT

TAF TAF LFMP
Valide du 14 à 15h jusqu'au 15 à 15h UTC


141400Z 1415/1515 VRB05KT CAVOK
TEMPO 1415/1418 VRB15G25KT BKN040TCU
BECMG 1507/1509 08015KT
TEMPO 1512/1515 VRB15G25KT BKN040TCU
ATIS : +33 4 68 63 75 12



MET'MAP, la Météo Aéronautique d'un coup d'oeil ! - Copyright ORBIFLY Décembre 2007 - Disclaimer

ORBIFLY MET'MAP TEAM :

Programmation & Développement : Alexandra Zaïnal
Sur une idée originale de : Baudouin d'Aumeries
Assistance à la programmation : Marc-Olivier Méhu
Soutien technique & logistique : Manuel Goepfert

Contact : metmap@orbifly.com




SOURCES & CREDITS :

   NOAA